sensor_id;sensor_type;location;lat;lon;timestamp;P1;durP1;ratioP1;P2;durP2;ratioP2
69906;SDS011;57190;47.918;8.112;2024-03-02T00:01:11;4.53;;;4.20;;
69906;SDS011;57190;47.918;8.112;2024-03-02T00:03:37;4.53;;;4.13;;
69906;SDS011;57190;47.918;8.112;2024-03-02T00:06:03;4.63;;;4.23;;
69906;SDS011;57190;47.918;8.112;2024-03-02T00:08:29;4.50;;;4.10;;
69906;SDS011;57190;47.918;8.112;2024-03-02T00:13:53;6.13;;;4.83;;
69906;SDS011;57190;47.918;8.112;2024-03-02T00:19:40;5.00;;;4.50;;
69906;SDS011;57190;47.918;8.112;2024-03-02T00:22:05;4.67;;;4.27;;
69906;SDS011;57190;47.918;8.112;2024-03-02T00:24:34;5.13;;;4.63;;
69906;SDS011;57190;47.918;8.112;2024-03-02T00:27:01;4.50;;;4.20;;
69906;SDS011;57190;47.918;8.112;2024-03-02T00:29:28;4.40;;;4.00;;
69906;SDS011;57190;47.918;8.112;2024-03-02T00:31:54;5.03;;;4.63;;
69906;SDS011;57190;47.918;8.112;2024-03-02T00:34:20;5.53;;;5.03;;
69906;SDS011;57190;47.918;8.112;2024-03-02T00:36:46;5.37;;;4.87;;
69906;SDS011;57190;47.918;8.112;2024-03-02T00:39:13;5.37;;;4.90;;
69906;SDS011;57190;47.918;8.112;2024-03-02T00:41:42;5.80;;;5.10;;
69906;SDS011;57190;47.918;8.112;2024-03-02T00:44:08;4.93;;;4.53;;
69906;SDS011;57190;47.918;8.112;2024-03-02T00:46:37;5.33;;;4.93;;
69906;SDS011;57190;47.918;8.112;2024-03-02T00:49:24;5.50;;;5.00;;
69906;SDS011;57190;47.918;8.112;2024-03-02T00:51:51;5.50;;;5.00;;
69906;SDS011;57190;47.918;8.112;2024-03-02T00:54:21;5.97;;;5.47;;
69906;SDS011;57190;47.918;8.112;2024-03-02T00:56:49;5.90;;;5.37;;
69906;SDS011;57190;47.918;8.112;2024-03-02T00:59:14;5.17;;;4.77;;
69906;SDS011;57190;47.918;8.112;2024-03-02T01:01:40;5.00;;;4.60;;
69906;SDS011;57190;47.918;8.112;2024-03-02T01:04:07;5.70;;;5.00;;
69906;SDS011;57190;47.918;8.112;2024-03-02T01:06:32;5.27;;;4.77;;
69906;SDS011;57190;47.918;8.112;2024-03-02T01:08:58;5.10;;;4.60;;
69906;SDS011;57190;47.918;8.112;2024-03-02T01:11:24;4.70;;;4.30;;
69906;SDS011;57190;47.918;8.112;2024-03-02T01:13:50;5.47;;;5.07;;
69906;SDS011;57190;47.918;8.112;2024-03-02T01:16:17;4.93;;;4.53;;
69906;SDS011;57190;47.918;8.112;2024-03-02T01:18:42;4.87;;;4.37;;
69906;SDS011;57190;47.918;8.112;2024-03-02T01:21:08;4.70;;;4.30;;
69906;SDS011;57190;47.918;8.112;2024-03-02T01:23:34;4.80;;;4.40;;
69906;SDS011;57190;47.918;8.112;2024-03-02T01:25:59;5.93;;;5.43;;
69906;SDS011;57190;47.918;8.112;2024-03-02T01:28:24;5.73;;;5.23;;
69906;SDS011;57190;47.918;8.112;2024-03-02T01:30:50;4.57;;;4.27;;
69906;SDS011;57190;47.918;8.112;2024-03-02T01:33:19;4.37;;;4.03;;
69906;SDS011;57190;47.918;8.112;2024-03-02T01:35:46;4.80;;;4.40;;
69906;SDS011;57190;47.918;8.112;2024-03-02T01:38:12;5.57;;;5.10;;
69906;SDS011;57190;47.918;8.112;2024-03-02T01:40:38;4.40;;;4.00;;
69906;SDS011;57190;47.918;8.112;2024-03-02T01:43:06;5.03;;;4.60;;
69906;SDS011;57190;47.918;8.112;2024-03-02T01:45:32;4.80;;;4.40;;
69906;SDS011;57190;47.918;8.112;2024-03-02T01:47:58;4.53;;;4.13;;
69906;SDS011;57190;47.918;8.112;2024-03-02T01:50:33;5.07;;;4.57;;
69906;SDS011;57190;47.918;8.112;2024-03-02T01:52:59;5.37;;;4.87;;
69906;SDS011;57190;47.918;8.112;2024-03-02T01:55:26;4.53;;;4.13;;
69906;SDS011;57190;47.918;8.112;2024-03-02T01:57:54;4.33;;;4.00;;
69906;SDS011;57190;47.918;8.112;2024-03-02T02:00:19;4.80;;;4.40;;
69906;SDS011;57190;47.918;8.112;2024-03-02T02:02:49;4.27;;;3.87;;
69906;SDS011;57190;47.918;8.112;2024-03-02T02:05:15;5.17;;;4.67;;
69906;SDS011;57190;47.918;8.112;2024-03-02T02:07:41;4.67;;;4.27;;
69906;SDS011;57190;47.918;8.112;2024-03-02T02:10:08;4.63;;;4.23;;
69906;SDS011;57190;47.918;8.112;2024-03-02T02:12:34;5.13;;;4.63;;
69906;SDS011;57190;47.918;8.112;2024-03-02T02:15:00;5.43;;;4.93;;
69906;SDS011;57190;47.918;8.112;2024-03-02T02:17:26;6.63;;;4.43;;
69906;SDS011;57190;47.918;8.112;2024-03-02T02:19:51;4.90;;;4.50;;
69906;SDS011;57190;47.918;8.112;2024-03-02T02:22:17;4.67;;;4.27;;
69906;SDS011;57190;47.918;8.112;2024-03-02T02:24:42;4.33;;;3.93;;
69906;SDS011;57190;47.918;8.112;2024-03-02T02:27:08;4.83;;;4.43;;
69906;SDS011;57190;47.918;8.112;2024-03-02T02:29:35;4.60;;;4.00;;
69906;SDS011;57190;47.918;8.112;2024-03-02T02:32:00;5.20;;;4.20;;
69906;SDS011;57190;47.918;8.112;2024-03-02T02:34:26;4.17;;;3.77;;
69906;SDS011;57190;47.918;8.112;2024-03-02T02:36:52;4.23;;;3.93;;
69906;SDS011;57190;47.918;8.112;2024-03-02T02:39:18;3.60;;;3.30;;
69906;SDS011;57190;47.918;8.112;2024-03-02T02:41:46;4.50;;;4.10;;
69906;SDS011;57190;47.918;8.112;2024-03-02T02:44:12;4.20;;;3.80;;
69906;SDS011;57190;47.918;8.112;2024-03-02T02:46:38;3.83;;;3.53;;
69906;SDS011;57190;47.918;8.112;2024-03-02T02:49:04;4.30;;;3.90;;
69906;SDS011;57190;47.918;8.112;2024-03-02T02:51:29;3.90;;;3.50;;
69906;SDS011;57190;47.918;8.112;2024-03-02T02:53:55;3.90;;;3.60;;
69906;SDS011;57190;47.918;8.112;2024-03-02T02:56:20;4.43;;;4.10;;
69906;SDS011;57190;47.918;8.112;2024-03-02T02:58:46;4.97;;;4.57;;
69906;SDS011;57190;47.918;8.112;2024-03-02T03:01:11;4.77;;;4.37;;
69906;SDS011;57190;47.918;8.112;2024-03-02T03:03:37;4.03;;;3.73;;
69906;SDS011;57190;47.918;8.112;2024-03-02T03:06:02;3.80;;;3.50;;
69906;SDS011;57190;47.918;8.112;2024-03-02T03:08:28;4.03;;;3.63;;
69906;SDS011;57190;47.918;8.112;2024-03-02T03:10:54;4.10;;;3.77;;
69906;SDS011;57190;47.918;8.112;2024-03-02T03:13:19;4.10;;;3.80;;
69906;SDS011;57190;47.918;8.112;2024-03-02T03:15:45;4.67;;;4.27;;
69906;SDS011;57190;47.918;8.112;2024-03-02T03:18:10;4.60;;;4.20;;
69906;SDS011;57190;47.918;8.112;2024-03-02T03:20:36;4.87;;;4.47;;
69906;SDS011;57190;47.918;8.112;2024-03-02T03:23:01;3.67;;;3.37;;
69906;SDS011;57190;47.918;8.112;2024-03-02T03:25:29;4.50;;;4.10;;
69906;SDS011;57190;47.918;8.112;2024-03-02T03:27:54;4.13;;;3.83;;
69906;SDS011;57190;47.918;8.112;2024-03-02T03:30:20;4.67;;;4.27;;
69906;SDS011;57190;47.918;8.112;2024-03-02T03:32:45;5.30;;;4.90;;
69906;SDS011;57190;47.918;8.112;2024-03-02T03:35:13;4.60;;;4.20;;
69906;SDS011;57190;47.918;8.112;2024-03-02T03:37:40;4.00;;;3.67;;
69906;SDS011;57190;47.918;8.112;2024-03-02T03:40:06;5.30;;;4.80;;
69906;SDS011;57190;47.918;8.112;2024-03-02T03:42:37;4.40;;;4.00;;
69906;SDS011;57190;47.918;8.112;2024-03-02T03:45:04;4.60;;;4.20;;
69906;SDS011;57190;47.918;8.112;2024-03-02T03:47:33;4.53;;;4.13;;
69906;SDS011;57190;47.918;8.112;2024-03-02T03:49:58;4.80;;;4.40;;
69906;SDS011;57190;47.918;8.112;2024-03-02T03:52:24;4.77;;;4.37;;
69906;SDS011;57190;47.918;8.112;2024-03-02T03:54:50;5.03;;;4.30;;
69906;SDS011;57190;47.918;8.112;2024-03-02T03:57:16;5.10;;;4.70;;
69906;SDS011;57190;47.918;8.112;2024-03-02T03:59:42;4.90;;;4.40;;
69906;SDS011;57190;47.918;8.112;2024-03-02T04:02:07;4.67;;;4.27;;
69906;SDS011;57190;47.918;8.112;2024-03-02T04:04:34;4.70;;;4.30;;
69906;SDS011;57190;47.918;8.112;2024-03-02T04:06:59;5.17;;;4.63;;
69906;SDS011;57190;47.918;8.112;2024-03-02T04:09:25;5.37;;;4.97;;
69906;SDS011;57190;47.918;8.112;2024-03-02T04:11:50;3.97;;;3.57;;
69906;SDS011;57190;47.918;8.112;2024-03-02T04:14:16;5.17;;;4.67;;
69906;SDS011;57190;47.918;8.112;2024-03-02T04:16:42;4.70;;;4.30;;
69906;SDS011;57190;47.918;8.112;2024-03-02T04:19:08;4.77;;;4.37;;
69906;SDS011;57190;47.918;8.112;2024-03-02T04:21:33;4.50;;;3.97;;
69906;SDS011;57190;47.918;8.112;2024-03-02T04:23:59;4.50;;;4.10;;
69906;SDS011;57190;47.918;8.112;2024-03-02T04:26:24;4.57;;;4.17;;
69906;SDS011;57190;47.918;8.112;2024-03-02T04:28:50;4.90;;;4.50;;
69906;SDS011;57190;47.918;8.112;2024-03-02T04:31:16;4.87;;;4.47;;
69906;SDS011;57190;47.918;8.112;2024-03-02T04:33:42;6.17;;;5.67;;
69906;SDS011;57190;47.918;8.112;2024-03-02T04:36:08;5.77;;;5.03;;
69906;SDS011;57190;47.918;8.112;2024-03-02T04:38:34;5.40;;;5.00;;
69906;SDS011;57190;47.918;8.112;2024-03-02T04:41:00;4.93;;;4.53;;
69906;SDS011;57190;47.918;8.112;2024-03-02T04:43:26;4.20;;;3.90;;
69906;SDS011;57190;47.918;8.112;2024-03-02T04:45:51;4.20;;;3.90;;
69906;SDS011;57190;47.918;8.112;2024-03-02T04:48:17;3.90;;;3.60;;
69906;SDS011;57190;47.918;8.112;2024-03-02T04:50:43;4.80;;;4.40;;
69906;SDS011;57190;47.918;8.112;2024-03-02T04:53:08;4.70;;;4.30;;
69906;SDS011;57190;47.918;8.112;2024-03-02T04:55:34;4.93;;;4.50;;
69906;SDS011;57190;47.918;8.112;2024-03-02T04:57:59;4.27;;;3.90;;
69906;SDS011;57190;47.918;8.112;2024-03-02T05:00:25;5.50;;;5.03;;
69906;SDS011;57190;47.918;8.112;2024-03-02T05:02:50;5.03;;;4.53;;
69906;SDS011;57190;47.918;8.112;2024-03-02T05:05:16;4.67;;;4.27;;
69906;SDS011;57190;47.918;8.112;2024-03-02T05:07:42;4.17;;;3.87;;
69906;SDS011;57190;47.918;8.112;2024-03-02T05:10:09;5.07;;;4.67;;
69906;SDS011;57190;47.918;8.112;2024-03-02T05:12:34;5.20;;;4.70;;
69906;SDS011;57190;47.918;8.112;2024-03-02T05:15:20;5.60;;;5.20;;
69906;SDS011;57190;47.918;8.112;2024-03-02T05:17:46;5.07;;;4.63;;
69906;SDS011;57190;47.918;8.112;2024-03-02T05:20:12;4.83;;;4.43;;
69906;SDS011;57190;47.918;8.112;2024-03-02T05:22:38;5.40;;;4.90;;
69906;SDS011;57190;47.918;8.112;2024-03-02T05:25:04;5.17;;;4.77;;
69906;SDS011;57190;47.918;8.112;2024-03-02T05:27:30;5.70;;;5.20;;
69906;SDS011;57190;47.918;8.112;2024-03-02T05:29:58;5.93;;;5.43;;
69906;SDS011;57190;47.918;8.112;2024-03-02T05:32:24;5.60;;;5.10;;
69906;SDS011;57190;47.918;8.112;2024-03-02T05:34:49;5.17;;;4.67;;
69906;SDS011;57190;47.918;8.112;2024-03-02T05:37:16;5.57;;;5.07;;
69906;SDS011;57190;47.918;8.112;2024-03-02T05:39:42;5.40;;;4.90;;
69906;SDS011;57190;47.918;8.112;2024-03-02T05:42:08;5.53;;;5.03;;
69906;SDS011;57190;47.918;8.112;2024-03-02T05:44:34;5.77;;;5.27;;
69906;SDS011;57190;47.918;8.112;2024-03-02T05:47:00;5.30;;;4.90;;
69906;SDS011;57190;47.918;8.112;2024-03-02T05:49:25;5.93;;;5.43;;
69906;SDS011;57190;47.918;8.112;2024-03-02T05:51:51;5.23;;;4.73;;
69906;SDS011;57190;47.918;8.112;2024-03-02T05:54:16;5.23;;;4.77;;
69906;SDS011;57190;47.918;8.112;2024-03-02T05:56:42;4.77;;;4.37;;
69906;SDS011;57190;47.918;8.112;2024-03-02T05:59:07;4.70;;;4.30;;
69906;SDS011;57190;47.918;8.112;2024-03-02T06:01:42;4.77;;;4.37;;
69906;SDS011;57190;47.918;8.112;2024-03-02T06:04:12;5.20;;;4.70;;
69906;SDS011;57190;47.918;8.112;2024-03-02T06:06:54;5.23;;;4.83;;
69906;SDS011;57190;47.918;8.112;2024-03-02T06:09:21;4.93;;;4.53;;
69906;SDS011;57190;47.918;8.112;2024-03-02T06:11:48;5.63;;;5.13;;
69906;SDS011;57190;47.918;8.112;2024-03-02T06:14:13;5.83;;;5.33;;
69906;SDS011;57190;47.918;8.112;2024-03-02T06:16:39;5.90;;;5.40;;
69906;SDS011;57190;47.918;8.112;2024-03-02T06:19:05;5.87;;;5.37;;
69906;SDS011;57190;47.918;8.112;2024-03-02T06:21:30;5.40;;;4.90;;
69906;SDS011;57190;47.918;8.112;2024-03-02T06:23:55;6.30;;;5.70;;
69906;SDS011;57190;47.918;8.112;2024-03-02T06:26:21;5.83;;;4.93;;
69906;SDS011;57190;47.918;8.112;2024-03-02T06:28:47;5.67;;;5.17;;
69906;SDS011;57190;47.918;8.112;2024-03-02T06:31:12;5.40;;;5.00;;
69906;SDS011;57190;47.918;8.112;2024-03-02T06:33:38;5.43;;;4.93;;
69906;SDS011;57190;47.918;8.112;2024-03-02T06:36:05;4.53;;;4.13;;
69906;SDS011;57190;47.918;8.112;2024-03-02T06:38:33;4.57;;;4.17;;
69906;SDS011;57190;47.918;8.112;2024-03-02T06:40:59;4.67;;;4.33;;
69906;SDS011;57190;47.918;8.112;2024-03-02T06:43:24;4.37;;;3.97;;
69906;SDS011;57190;47.918;8.112;2024-03-02T06:45:50;5.03;;;4.63;;
69906;SDS011;57190;47.918;8.112;2024-03-02T06:48:16;4.33;;;3.93;;
69906;SDS011;57190;47.918;8.112;2024-03-02T06:50:48;5.73;;;5.10;;
69906;SDS011;57190;47.918;8.112;2024-03-02T06:53:14;5.40;;;4.90;;
69906;SDS011;57190;47.918;8.112;2024-03-02T06:55:43;5.50;;;5.10;;
69906;SDS011;57190;47.918;8.112;2024-03-02T06:58:10;5.53;;;5.03;;
69906;SDS011;57190;47.918;8.112;2024-03-02T07:00:36;5.40;;;4.90;;
69906;SDS011;57190;47.918;8.112;2024-03-02T07:03:02;5.80;;;5.30;;
69906;SDS011;57190;47.918;8.112;2024-03-02T07:05:27;5.50;;;5.00;;
69906;SDS011;57190;47.918;8.112;2024-03-02T07:07:53;5.33;;;4.93;;
69906;SDS011;57190;47.918;8.112;2024-03-02T07:10:18;6.00;;;5.50;;
69906;SDS011;57190;47.918;8.112;2024-03-02T07:12:45;5.30;;;4.80;;
69906;SDS011;57190;47.918;8.112;2024-03-02T07:15:10;6.43;;;5.83;;
69906;SDS011;57190;47.918;8.112;2024-03-02T07:17:46;5.80;;;5.40;;
69906;SDS011;57190;47.918;8.112;2024-03-02T07:20:12;5.83;;;5.33;;
69906;SDS011;57190;47.918;8.112;2024-03-02T07:22:38;6.33;;;5.67;;
69906;SDS011;57190;47.918;8.112;2024-03-02T07:25:04;5.73;;;5.20;;
69906;SDS011;57190;47.918;8.112;2024-03-02T07:27:32;5.53;;;5.03;;
69906;SDS011;57190;47.918;8.112;2024-03-02T07:29:58;6.37;;;5.87;;
69906;SDS011;57190;47.918;8.112;2024-03-02T07:32:24;5.87;;;5.27;;
69906;SDS011;57190;47.918;8.112;2024-03-02T07:34:49;6.40;;;5.83;;
69906;SDS011;57190;47.918;8.112;2024-03-02T07:37:16;6.13;;;5.63;;
69906;SDS011;57190;47.918;8.112;2024-03-02T07:39:42;6.27;;;5.77;;
69906;SDS011;57190;47.918;8.112;2024-03-02T07:42:09;5.17;;;4.77;;
69906;SDS011;57190;47.918;8.112;2024-03-02T07:44:35;5.00;;;4.60;;
69906;SDS011;57190;47.918;8.112;2024-03-02T07:47:00;5.80;;;5.30;;
69906;SDS011;57190;47.918;8.112;2024-03-02T07:49:26;5.63;;;5.13;;
69906;SDS011;57190;47.918;8.112;2024-03-02T07:51:52;5.00;;;4.60;;
69906;SDS011;57190;47.918;8.112;2024-03-02T07:54:17;5.07;;;4.57;;
69906;SDS011;57190;47.918;8.112;2024-03-02T07:56:42;5.10;;;4.70;;
69906;SDS011;57190;47.918;8.112;2024-03-02T07:59:08;4.93;;;4.53;;
69906;SDS011;57190;47.918;8.112;2024-03-02T08:01:33;6.20;;;5.70;;
69906;SDS011;57190;47.918;8.112;2024-03-02T08:04:02;5.40;;;4.97;;
69906;SDS011;57190;47.918;8.112;2024-03-02T08:06:30;5.20;;;4.80;;
69906;SDS011;57190;47.918;8.112;2024-03-02T08:08:57;5.28;;;4.88;;
69906;SDS011;57190;47.918;8.112;2024-03-02T08:11:24;4.97;;;4.57;;
69906;SDS011;57190;47.918;8.112;2024-03-02T08:13:49;5.20;;;4.80;;
69906;SDS011;57190;47.918;8.112;2024-03-02T08:16:16;4.95;;;4.53;;
69906;SDS011;57190;47.918;8.112;2024-03-02T08:18:49;4.85;;;4.55;;
69906;SDS011;57190;47.918;8.112;2024-03-02T08:21:14;5.20;;;4.90;;
69906;SDS011;57190;47.918;8.112;2024-03-02T08:23:40;4.68;;;4.38;;
69906;SDS011;57190;47.918;8.112;2024-03-02T08:26:07;5.22;;;4.82;;
69906;SDS011;57190;47.918;8.112;2024-03-02T08:28:34;4.63;;;4.32;;
69906;SDS011;57190;47.918;8.112;2024-03-02T08:30:59;4.13;;;3.83;;
69906;SDS011;57190;47.918;8.112;2024-03-02T08:33:25;3.83;;;3.63;;
69906;SDS011;57190;47.918;8.112;2024-03-02T08:35:50;4.10;;;3.83;;
69906;SDS011;57190;47.918;8.112;2024-03-02T08:38:16;4.47;;;4.18;;
69906;SDS011;57190;47.918;8.112;2024-03-02T08:40:42;4.03;;;3.63;;
69906;SDS011;57190;47.918;8.112;2024-03-02T08:43:07;4.18;;;3.78;;
69906;SDS011;57190;47.918;8.112;2024-03-02T08:45:33;3.58;;;3.38;;
69906;SDS011;57190;47.918;8.112;2024-03-02T08:47:59;4.40;;;4.10;;
69906;SDS011;57190;47.918;8.112;2024-03-02T08:50:25;3.65;;;3.45;;
69906;SDS011;57190;47.918;8.112;2024-03-02T08:52:51;3.42;;;3.22;;
69906;SDS011;57190;47.918;8.112;2024-03-02T08:55:16;3.90;;;3.60;;
69906;SDS011;57190;47.918;8.112;2024-03-02T08:57:41;3.85;;;3.65;;
69906;SDS011;57190;47.918;8.112;2024-03-02T09:00:07;4.15;;;3.85;;
69906;SDS011;57190;47.918;8.112;2024-03-02T09:02:33;3.78;;;3.58;;
69906;SDS011;57190;47.918;8.112;2024-03-02T09:04:59;4.32;;;4.03;;
69906;SDS011;57190;47.918;8.112;2024-03-02T09:07:25;4.20;;;3.90;;
69906;SDS011;57190;47.918;8.112;2024-03-02T09:09:50;4.97;;;4.68;;
69906;SDS011;57190;47.918;8.112;2024-03-02T09:12:17;4.20;;;3.90;;
69906;SDS011;57190;47.918;8.112;2024-03-02T09:14:43;4.25;;;3.95;;
69906;SDS011;57190;47.918;8.112;2024-03-02T09:17:09;3.75;;;3.45;;
69906;SDS011;57190;47.918;8.112;2024-03-02T09:19:36;4.82;;;4.53;;
69906;SDS011;57190;47.918;8.112;2024-03-02T09:22:02;4.22;;;3.92;;
69906;SDS011;57190;47.918;8.112;2024-03-02T09:24:31;4.30;;;4.00;;
69906;SDS011;57190;47.918;8.112;2024-03-02T09:26:58;4.10;;;3.80;;
69906;SDS011;57190;47.918;8.112;2024-03-02T09:29:23;4.43;;;4.13;;
69906;SDS011;57190;47.918;8.112;2024-03-02T09:31:49;4.35;;;4.05;;
69906;SDS011;57190;47.918;8.112;2024-03-02T09:34:15;4.10;;;3.80;;
69906;SDS011;57190;47.918;8.112;2024-03-02T09:36:41;3.75;;;3.50;;
69906;SDS011;57190;47.918;8.112;2024-03-02T09:39:07;3.78;;;3.58;;
69906;SDS011;57190;47.918;8.112;2024-03-02T09:41:34;3.90;;;3.60;;
69906;SDS011;57190;47.918;8.112;2024-03-02T09:44:04;4.00;;;3.70;;
69906;SDS011;57190;47.918;8.112;2024-03-02T09:46:30;3.47;;;3.20;;
69906;SDS011;57190;47.918;8.112;2024-03-02T09:48:56;2.47;;;2.30;;
69906;SDS011;57190;47.918;8.112;2024-03-02T09:51:22;2.83;;;2.63;;
69906;SDS011;57190;47.918;8.112;2024-03-02T09:53:48;3.30;;;3.10;;
69906;SDS011;57190;47.918;8.112;2024-03-02T09:56:14;3.45;;;3.25;;
69906;SDS011;57190;47.918;8.112;2024-03-02T09:58:41;3.00;;;2.80;;
69906;SDS011;57190;47.918;8.112;2024-03-02T10:01:07;1.67;;;1.58;;
69906;SDS011;57190;47.918;8.112;2024-03-02T10:03:35;1.70;;;1.60;;
69906;SDS011;57190;47.918;8.112;2024-03-02T10:08:49;3.00;;;2.80;;
69906;SDS011;57190;47.918;8.112;2024-03-02T10:11:25;2.35;;;2.25;;
69906;SDS011;57190;47.918;8.112;2024-03-02T10:14:03;2.75;;;2.55;;
69906;SDS011;57190;47.918;8.112;2024-03-02T10:16:36;2.95;;;2.75;;
69906;SDS011;57190;47.918;8.112;2024-03-02T10:19:18;2.33;;;2.20;;
69906;SDS011;57190;47.918;8.112;2024-03-02T10:21:51;2.13;;;1.92;;
69906;SDS011;57190;47.918;8.112;2024-03-02T10:24:20;2.67;;;2.20;;
69906;SDS011;57190;47.918;8.112;2024-03-02T10:26:47;2.47;;;2.28;;
69906;SDS011;57190;47.918;8.112;2024-03-02T10:29:13;2.25;;;2.15;;
69906;SDS011;57190;47.918;8.112;2024-03-02T10:31:39;2.13;;;2.00;;
69906;SDS011;57190;47.918;8.112;2024-03-02T10:34:09;2.15;;;2.05;;
69906;SDS011;57190;47.918;8.112;2024-03-02T10:36:36;2.15;;;1.95;;
69906;SDS011;57190;47.918;8.112;2024-03-02T10:39:06;2.80;;;1.95;;
69906;SDS011;57190;47.918;8.112;2024-03-02T10:41:34;1.70;;;1.60;;
69906;SDS011;57190;47.918;8.112;2024-03-02T10:44:04;1.35;;;1.30;;
69906;SDS011;57190;47.918;8.112;2024-03-02T10:46:32;1.10;;;1.00;;
69906;SDS011;57190;47.918;8.112;2024-03-02T10:48:59;1.48;;;1.38;;
69906;SDS011;57190;47.918;8.112;2024-03-02T10:51:25;1.30;;;1.20;;
69906;SDS011;57190;47.918;8.112;2024-03-02T10:53:53;2.03;;;1.27;;
69906;SDS011;57190;47.918;8.112;2024-03-02T10:56:27;1.60;;;1.50;;
69906;SDS011;57190;47.918;8.112;2024-03-02T10:59:36;1.55;;;1.45;;
69906;SDS011;57190;47.918;8.112;2024-03-02T11:02:11;1.42;;;1.33;;
69906;SDS011;57190;47.918;8.112;2024-03-02T11:04:38;1.65;;;1.55;;
69906;SDS011;57190;47.918;8.112;2024-03-02T11:07:07;1.50;;;1.40;;
69906;SDS011;57190;47.918;8.112;2024-03-02T11:09:40;2.33;;;1.90;;
69906;SDS011;57190;47.918;8.112;2024-03-02T11:12:13;1.40;;;1.30;;
69906;SDS011;57190;47.918;8.112;2024-03-02T11:15:01;1.60;;;1.50;;
69906;SDS011;57190;47.918;8.112;2024-03-02T11:17:34;1.45;;;1.35;;
69906;SDS011;57190;47.918;8.112;2024-03-02T11:20:00;1.60;;;1.50;;
69906;SDS011;57190;47.918;8.112;2024-03-02T11:22:28;1.48;;;1.38;;
69906;SDS011;57190;47.918;8.112;2024-03-02T11:24:54;1.60;;;1.50;;
69906;SDS011;57190;47.918;8.112;2024-03-02T11:30:48;1.20;;;1.20;;
69906;SDS011;57190;47.918;8.112;2024-03-02T11:32:59;1.48;;;1.40;;
69906;SDS011;57190;47.918;8.112;2024-03-02T11:35:25;1.50;;;1.40;;
69906;SDS011;57190;47.918;8.112;2024-03-02T11:37:54;0.90;;;0.90;;
69906;SDS011;57190;47.918;8.112;2024-03-02T11:40:24;1.02;;;1.02;;
69906;SDS011;57190;47.918;8.112;2024-03-02T11:42:50;1.35;;;1.25;;
69906;SDS011;57190;47.918;8.112;2024-03-02T11:45:16;1.15;;;1.08;;
69906;SDS011;57190;47.918;8.112;2024-03-02T11:47:46;1.02;;;1.00;;
69906;SDS011;57190;47.918;8.112;2024-03-02T11:50:15;0.98;;;0.98;;
69906;SDS011;57190;47.918;8.112;2024-03-02T11:52:53;0.93;;;0.93;;
69906;SDS011;57190;47.918;8.112;2024-03-02T11:55:19;1.20;;;1.10;;
69906;SDS011;57190;47.918;8.112;2024-03-02T11:57:45;0.93;;;0.93;;
69906;SDS011;57190;47.918;8.112;2024-03-02T12:00:17;0.77;;;0.77;;
69906;SDS011;57190;47.918;8.112;2024-03-02T12:02:43;1.00;;;1.00;;
69906;SDS011;57190;47.918;8.112;2024-03-02T12:05:14;0.82;;;0.82;;
69906;SDS011;57190;47.918;8.112;2024-03-02T12:07:41;0.90;;;0.90;;
69906;SDS011;57190;47.918;8.112;2024-03-02T12:10:08;0.85;;;0.70;;
69906;SDS011;57190;47.918;8.112;2024-03-02T12:12:34;0.77;;;0.77;;
69906;SDS011;57190;47.918;8.112;2024-03-02T12:14:59;0.75;;;0.75;;
69906;SDS011;57190;47.918;8.112;2024-03-02T12:17:26;0.98;;;0.95;;
69906;SDS011;57190;47.918;8.112;2024-03-02T12:19:51;0.90;;;0.68;;
69906;SDS011;57190;47.918;8.112;2024-03-02T12:22:17;0.80;;;0.80;;
69906;SDS011;57190;47.918;8.112;2024-03-02T12:24:44;0.85;;;0.85;;
69906;SDS011;57190;47.918;8.112;2024-03-02T12:27:13;0.88;;;0.63;;
69906;SDS011;57190;47.918;8.112;2024-03-02T12:29:40;0.80;;;0.80;;
69906;SDS011;57190;47.918;8.112;2024-03-02T12:32:06;1.27;;;0.95;;
69906;SDS011;57190;47.918;8.112;2024-03-02T12:34:33;1.02;;;0.80;;
69906;SDS011;57190;47.918;8.112;2024-03-02T12:36:59;0.95;;;0.75;;
69906;SDS011;57190;47.918;8.112;2024-03-02T12:39:24;0.80;;;0.80;;
69906;SDS011;57190;47.918;8.112;2024-03-02T12:41:50;0.85;;;0.85;;
69906;SDS011;57190;47.918;8.112;2024-03-02T12:44:16;0.80;;;0.80;;
69906;SDS011;57190;47.918;8.112;2024-03-02T12:46:43;0.82;;;0.82;;
69906;SDS011;57190;47.918;8.112;2024-03-02T12:49:09;0.90;;;0.90;;
69906;SDS011;57190;47.918;8.112;2024-03-02T12:51:37;2.85;;;1.10;;
69906;SDS011;57190;47.918;8.112;2024-03-02T12:54:05;0.90;;;0.90;;
69906;SDS011;57190;47.918;8.112;2024-03-02T12:56:31;1.10;;;1.00;;
69906;SDS011;57190;47.918;8.112;2024-03-02T12:58:58;2.15;;;1.02;;
69906;SDS011;57190;47.918;8.112;2024-03-02T13:01:25;1.05;;;1.05;;
69906;SDS011;57190;47.918;8.112;2024-03-02T13:03:51;1.20;;;1.10;;
69906;SDS011;57190;47.918;8.112;2024-03-02T13:06:18;1.02;;;1.02;;
69906;SDS011;57190;47.918;8.112;2024-03-02T13:08:45;0.90;;;0.90;;
69906;SDS011;57190;47.918;8.112;2024-03-02T13:11:11;1.00;;;1.00;;
69906;SDS011;57190;47.918;8.112;2024-03-02T13:13:36;1.23;;;1.23;;
69906;SDS011;57190;47.918;8.112;2024-03-02T13:16:07;1.30;;;1.17;;
69906;SDS011;57190;47.918;8.112;2024-03-02T13:18:36;2.20;;;1.27;;
69906;SDS011;57190;47.918;8.112;2024-03-02T13:21:03;1.10;;;1.00;;
69906;SDS011;57190;47.918;8.112;2024-03-02T13:23:29;1.70;;;1.05;;
69906;SDS011;57190;47.918;8.112;2024-03-02T13:25:58;1.10;;;1.00;;
69906;SDS011;57190;47.918;8.112;2024-03-02T13:28:24;1.23;;;1.13;;
69906;SDS011;57190;47.918;8.112;2024-03-02T13:30:51;1.42;;;1.25;;
69906;SDS011;57190;47.918;8.112;2024-03-02T13:33:18;1.77;;;1.33;;
69906;SDS011;57190;47.918;8.112;2024-03-02T13:35:48;1.45;;;1.20;;
69906;SDS011;57190;47.918;8.112;2024-03-02T13:38:15;1.10;;;1.10;;
69906;SDS011;57190;47.918;8.112;2024-03-02T13:40:44;1.40;;;1.30;;
69906;SDS011;57190;47.918;8.112;2024-03-02T13:43:10;1.08;;;1.08;;
69906;SDS011;57190;47.918;8.112;2024-03-02T13:45:37;1.35;;;1.08;;
69906;SDS011;57190;47.918;8.112;2024-03-02T13:48:03;1.92;;;1.05;;
69906;SDS011;57190;47.918;8.112;2024-03-02T13:50:28;0.80;;;0.80;;
69906;SDS011;57190;47.918;8.112;2024-03-02T13:52:55;1.13;;;1.10;;
69906;SDS011;57190;47.918;8.112;2024-03-02T13:55:21;1.35;;;1.25;;
69906;SDS011;57190;47.918;8.112;2024-03-02T13:57:46;1.20;;;0.90;;
69906;SDS011;57190;47.918;8.112;2024-03-02T14:00:13;1.70;;;0.77;;
69906;SDS011;57190;47.918;8.112;2024-03-02T14:02:40;1.00;;;1.00;;
69906;SDS011;57190;47.918;8.112;2024-03-02T14:05:06;0.75;;;0.75;;
69906;SDS011;57190;47.918;8.112;2024-03-02T14:07:36;0.82;;;0.50;;
69906;SDS011;57190;47.918;8.112;2024-03-02T14:10:03;0.80;;;0.80;;
69906;SDS011;57190;47.918;8.112;2024-03-02T14:12:28;0.70;;;0.70;;
69906;SDS011;57190;47.918;8.112;2024-03-02T14:14:54;0.65;;;0.65;;
69906;SDS011;57190;47.918;8.112;2024-03-02T14:17:23;1.42;;;0.90;;
69906;SDS011;57190;47.918;8.112;2024-03-02T14:19:49;0.93;;;0.80;;
69906;SDS011;57190;47.918;8.112;2024-03-02T14:22:14;0.82;;;0.82;;
69906;SDS011;57190;47.918;8.112;2024-03-02T14:24:42;1.00;;;1.00;;
69906;SDS011;57190;47.918;8.112;2024-03-02T14:27:08;1.67;;;1.10;;
69906;SDS011;57190;47.918;8.112;2024-03-02T14:29:34;1.00;;;1.00;;
69906;SDS011;57190;47.918;8.112;2024-03-02T14:32:02;1.85;;;0.70;;
69906;SDS011;57190;47.918;8.112;2024-03-02T14:34:28;1.58;;;0.93;;
69906;SDS011;57190;47.918;8.112;2024-03-02T14:36:54;0.93;;;0.80;;
69906;SDS011;57190;47.918;8.112;2024-03-02T14:39:20;1.10;;;1.00;;
69906;SDS011;57190;47.918;8.112;2024-03-02T14:41:46;0.95;;;0.95;;
69906;SDS011;57190;47.918;8.112;2024-03-02T14:44:11;1.30;;;1.20;;
69906;SDS011;57190;47.918;8.112;2024-03-02T14:46:37;1.15;;;1.00;;
69906;SDS011;57190;47.918;8.112;2024-03-02T14:49:02;1.05;;;1.00;;
69906;SDS011;57190;47.918;8.112;2024-03-02T14:51:29;0.90;;;0.90;;
69906;SDS011;57190;47.918;8.112;2024-03-02T14:53:55;0.98;;;0.98;;
69906;SDS011;57190;47.918;8.112;2024-03-02T14:56:21;1.15;;;1.00;;
69906;SDS011;57190;47.918;8.112;2024-03-02T14:58:46;0.90;;;0.90;;